Time;durP1;ratioP1;P1;durP2;ratioP2;P2;SDS_P1;SDS_P2;PMS_P1;PMS_P2;Temp;Humidity;BMP_temperature;BMP_pressure;BME280_temperature;BME280_humidity;BME280_pressure;Samples;Min_cycle;Max_cycle;Signal;HPM_P1;HPM_P2
2022/01/09 00:00:44;;;;;;;0.30;0.10;;;-2.30;99.90;;;;;;5056262;28;20202;-85
2022/01/09 00:03:11;;;;;;;0.30;0.10;;;-2.30;99.90;;;;;;5067840;28;20247;-83
2022/01/09 00:05:38;;;;;;;0.30;0.10;;;-2.20;99.90;;;;;;5072124;28;20288;-85
2022/01/09 00:08:06;;;;;;;0.30;0.10;;;-2.20;99.90;;;;;;5060868;28;20198;-83
2022/01/09 00:10:35;;;;;;;0.30;0.10;;;-2.10;99.90;;;;;;5056794;28;20236;-83
2022/01/09 00:13:02;;;;;;;0.30;0.10;;;-2.00;99.90;;;;;;5069015;28;20206;-85
2022/01/09 00:15:29;;;;;;;0.30;0.10;;;-1.90;99.90;;;;;;5065835;28;20323;-84
2022/01/09 00:17:56;;;;;;;0.30;0.10;;;-1.90;99.90;;;;;;5061172;28;20224;-84
2022/01/09 00:20:23;;;;;;;0.30;0.10;;;-1.80;99.90;;;;;;5071163;28;20237;-83
2022/01/09 00:22:52;;;;;;;0.30;0.10;;;-1.80;99.90;;;;;;5055581;28;21015;-84
2022/01/09 00:25:20;;;;;;;0.30;0.10;;;-1.80;99.90;;;;;;5078216;28;20224;-84
2022/01/09 00:27:50;;;;;;;0.30;0.10;;;-1.70;99.90;;;;;;5076660;28;20244;-84
2022/01/09 00:30:19;;;;;;;0.30;0.10;;;-1.70;99.90;;;;;;5078193;28;20221;-83
2022/01/09 00:32:46;;;;;;;0.30;0.10;;;-1.70;99.90;;;;;;5081418;28;20219;-85
2022/01/09 00:35:14;;;;;;;0.30;0.10;;;-1.70;99.90;;;;;;5061100;28;20202;-84
2022/01/09 00:37:42;;;;;;;0.80;0.80;;;-1.70;99.90;;;;;;5052916;28;20758;-84
2022/01/09 00:40:12;;;;;;;0.30;0.10;;;-1.70;99.90;;;;;;5071911;28;20616;-85
2022/01/09 00:42:39;;;;;;;0.30;0.10;;;-1.70;99.90;;;;;;5071586;28;20263;-83
2022/01/09 00:45:09;;;;;;;0.30;0.10;;;-1.70;99.90;;;;;;5069891;28;20205;-85
2022/01/09 00:47:36;;;;;;;0.30;0.10;;;-1.70;99.90;;;;;;5053521;28;20280;-84
2022/01/09 00:50:04;;;;;;;0.30;0.10;;;-1.70;99.90;;;;;;5063841;28;20278;-85
2022/01/09 00:52:31;;;;;;;0.30;0.20;;;-1.70;99.90;;;;;;5064602;28;20228;-84
2022/01/09 00:54:58;;;;;;;0.30;0.20;;;-1.60;99.90;;;;;;5052437;28;20202;-85
2022/01/09 00:57:25;;;;;;;0.30;0.10;;;-1.50;99.90;;;;;;5054720;28;20519;-83
2022/01/09 00:59:52;;;;;;;0.30;0.10;;;-1.50;99.90;;;;;;5069965;28;20265;-83
2022/01/09 01:02:20;;;;;;;0.30;0.10;;;-1.50;99.90;;;;;;5070178;28;20251;-82
2022/01/09 01:04:49;;;;;;;0.30;0.10;;;-1.40;99.90;;;;;;5064489;28;20243;-85
2022/01/09 01:07:16;;;;;;;0.30;0.10;;;-1.40;99.90;;;;;;5067587;28;20207;-82
2022/01/09 01:09:43;;;;;;;0.30;0.10;;;-1.40;99.90;;;;;;5070688;28;20249;-84
2022/01/09 01:12:10;;;;;;;0.30;0.10;;;-1.40;99.90;;;;;;5065730;28;20252;-85
2022/01/09 01:14:37;;;;;;;0.30;0.10;;;-1.30;99.90;;;;;;5070510;28;20220;-85
2022/01/09 01:17:04;;;;;;;0.30;0.10;;;-1.40;99.90;;;;;;5069043;28;20656;-83
2022/01/09 01:19:33;;;;;;;0.30;0.10;;;-1.30;99.90;;;;;;5050404;28;20196;-84
2022/01/09 01:22:01;;;;;;;0.30;0.10;;;-1.40;99.90;;;;;;5070561;28;20252;-85
2022/01/09 01:24:28;;;;;;;0.30;0.10;;;-1.40;99.90;;;;;;5068905;28;20197;-83
2022/01/09 01:26:55;;;;;;;0.30;0.10;;;-1.40;99.90;;;;;;5053106;28;20281;-84
2022/01/09 01:29:22;;;;;;;0.30;0.10;;;-1.40;99.90;;;;;;5064636;28;20280;-83
2022/01/09 01:31:49;;;;;;;0.30;0.10;;;-1.40;99.90;;;;;;5069068;28;20205;-83
2022/01/09 01:34:16;;;;;;;0.30;0.20;;;-1.40;99.90;;;;;;5065066;28;20225;-83
2022/01/09 01:36:44;;;;;;;0.30;0.20;;;-1.40;99.90;;;;;;5065861;28;20304;-83
2022/01/09 01:39:11;;;;;;;0.30;0.10;;;-1.40;99.90;;;;;;5062266;28;20583;-83
2022/01/09 01:41:39;;;;;;;0.30;0.10;;;-1.40;99.90;;;;;;5054552;28;20202;-86
2022/01/09 01:44:10;;;;;;;0.30;0.10;;;-1.50;99.90;;;;;;5050480;28;20203;-83
2022/01/09 01:46:37;;;;;;;0.30;0.10;;;-1.60;99.90;;;;;;5050266;28;20202;-85
2022/01/09 01:49:04;;;;;;;0.30;0.10;;;-1.60;99.90;;;;;;5049850;28;20224;-84
2022/01/09 01:51:33;;;;;;;3.50;0.75;;;-1.60;99.90;;;;;;5060682;28;20932;-83
2022/01/09 01:54:02;;;;;;;0.30;0.10;;;-1.60;99.90;;;;;;5070303;28;20280;-84
2022/01/09 01:56:29;;;;;;;0.38;0.32;;;-1.70;99.90;;;;;;5061288;28;20646;-83
2022/01/09 01:58:56;;;;;;;0.30;0.10;;;-1.70;99.90;;;;;;5071196;28;20195;-86
2022/01/09 02:01:23;;;;;;;0.30;0.10;;;-1.70;99.90;;;;;;5092982;28;20225;-82
2022/01/09 02:03:50;;;;;;;0.30;0.10;;;-1.70;99.90;;;;;;5078095;28;20195;-83
2022/01/09 02:06:18;;;;;;;0.40;0.30;;;-1.60;99.90;;;;;;5064890;28;20664;-83
2022/01/09 02:08:45;;;;;;;0.30;0.10;;;-1.60;99.90;;;;;;5052678;28;20198;-83
2022/01/09 02:11:14;;;;;;;0.30;0.10;;;-1.70;99.90;;;;;;5057826;28;20244;-84
2022/01/09 02:13:45;;;;;;;0.30;0.10;;;-1.60;99.90;;;;;;5067848;28;20203;-84
2022/01/09 02:16:16;;;;;;;0.30;0.20;;;-1.60;99.90;;;;;;5070104;28;20213;-85
2022/01/09 02:18:44;;;;;;;0.30;0.10;;;-1.60;99.90;;;;;;5055158;28;20210;-83
2022/01/09 02:21:13;;;;;;;0.30;0.20;;;-1.70;99.90;;;;;;5064727;28;20209;-84
2022/01/09 02:23:41;;;;;;;0.30;0.10;;;-1.70;99.90;;;;;;5050520;28;20198;-83
2022/01/09 02:26:09;;;;;;;0.30;0.10;;;-1.70;99.90;;;;;;5049255;28;20261;-84
2022/01/09 02:28:35;;;;;;;0.30;0.10;;;-1.80;99.90;;;;;;5054843;28;20225;-85
2022/01/09 02:31:03;;;;;;;0.30;0.10;;;-1.80;99.90;;;;;;5060692;28;20767;-83
2022/01/09 02:33:30;;;;;;;0.30;0.10;;;-1.70;99.90;;;;;;5049205;28;20281;-83
2022/01/09 02:35:56;;;;;;;0.30;0.10;;;-1.60;99.90;;;;;;5050450;28;20760;-83
2022/01/09 02:38:25;;;;;;;0.30;0.10;;;-1.60;99.90;;;;;;5054967;28;20592;-83
2022/01/09 02:40:53;;;;;;;0.95;0.20;;;-1.60;99.90;;;;;;5064806;28;20230;-83
2022/01/09 02:43:21;;;;;;;0.30;0.30;;;-1.60;99.90;;;;;;5050242;28;20309;-85
2022/01/09 02:45:53;;;;;;;0.30;0.10;;;-1.60;99.90;;;;;;5060278;28;20197;-85
2022/01/09 02:48:21;;;;;;;0.30;0.10;;;-1.60;99.90;;;;;;5058737;28;20201;-83
2022/01/09 02:50:59;;;;;;;0.30;0.10;;;-1.60;99.90;;;;;;5051021;28;20267;-83
2022/01/09 02:53:32;;;;;;;0.30;0.10;;;-1.70;99.90;;;;;;5049862;28;20191;-83
2022/01/09 02:55:59;;;;;;;0.30;0.10;;;-1.70;99.90;;;;;;5051630;28;20203;-83
2022/01/09 02:58:26;;;;;;;0.30;0.10;;;-1.80;99.90;;;;;;5048901;28;20206;-83
2022/01/09 03:00:53;;;;;;;0.30;0.10;;;-1.80;99.90;;;;;;5052931;28;20189;-85
2022/01/09 03:03:20;;;;;;;0.30;0.10;;;-1.80;99.90;;;;;;5063861;28;20193;-84
2022/01/09 03:05:47;;;;;;;1.35;1.27;;;-1.80;99.90;;;;;;5053306;28;20194;-83
2022/01/09 03:08:15;;;;;;;0.30;0.10;;;-1.90;99.90;;;;;;5048789;28;20221;-84
2022/01/09 03:10:44;;;;;;;0.30;0.10;;;-1.90;99.90;;;;;;5053113;28;20230;-83
2022/01/09 03:13:11;;;;;;;0.30;0.10;;;-1.90;99.90;;;;;;5068726;28;20194;-84
2022/01/09 03:15:38;;;;;;;0.30;0.10;;;-1.90;99.90;;;;;;5068759;28;20243;-84
2022/01/09 03:18:05;;;;;;;0.30;0.10;;;-1.90;99.90;;;;;;5068745;28;20529;-84
2022/01/09 03:20:33;;;;;;;0.30;0.10;;;-1.80;99.90;;;;;;5066492;28;20206;-83
2022/01/09 03:23:00;;;;;;;0.30;0.10;;;-1.80;99.90;;;;;;5052755;28;20202;-83
2022/01/09 03:25:28;;;;;;;0.30;0.10;;;-1.70;99.90;;;;;;5058032;28;20243;-84
2022/01/09 03:27:57;;;;;;;0.30;0.10;;;-1.70;99.90;;;;;;5054453;28;20934;-83
2022/01/09 03:30:26;;;;;;;0.30;0.10;;;-1.70;99.90;;;;;;5060491;28;20724;-83
2022/01/09 03:32:54;;;;;;;0.30;0.10;;;-1.70;99.90;;;;;;5060886;28;20221;-84
2022/01/09 03:35:23;;;;;;;0.30;0.10;;;-1.80;99.90;;;;;;5081586;28;20213;-84
2022/01/09 03:37:51;;;;;;;0.30;0.20;;;-1.80;99.90;;;;;;5093088;28;20197;-83
2022/01/09 03:40:20;;;;;;;0.30;0.10;;;-1.70;99.90;;;;;;5088269;28;20198;-84
2022/01/09 03:42:47;;;;;;;0.40;0.40;;;-1.60;99.90;;;;;;5055135;28;20203;-84
2022/01/09 03:45:16;;;;;;;0.30;0.10;;;-1.70;99.90;;;;;;5053898;28;20813;-85
2022/01/09 03:47:43;;;;;;;0.30;0.10;;;-1.60;99.90;;;;;;5053449;28;20222;-83
2022/01/09 03:50:12;;;;;;;0.30;0.10;;;-1.60;99.90;;;;;;5062611;28;20274;-86
2022/01/09 03:52:40;;;;;;;0.30;0.10;;;-1.60;99.90;;;;;;5053184;28;20238;-83
2022/01/09 03:55:12;;;;;;;0.30;0.10;;;-1.50;99.90;;;;;;5059653;28;20281;-84
2022/01/09 03:57:39;;;;;;;0.30;0.10;;;-1.50;99.90;;;;;;5052730;28;20714;-83
2022/01/09 04:00:08;;;;;;;0.30;0.10;;;-1.50;99.90;;;;;;5062841;28;20299;-84
2022/01/09 04:02:37;;;;;;;0.30;0.10;;;-1.40;99.90;;;;;;5059594;28;20653;-87
2022/01/09 04:05:04;;;;;;;0.30;0.17;;;-1.30;99.90;;;;;;5054263;28;20707;-85
2022/01/09 04:07:31;;;;;;;0.30;0.10;;;-1.30;99.90;;;;;;5072073;28;20207;-85
2022/01/09 04:09:58;;;;;;;0.30;0.20;;;-1.30;99.90;;;;;;5058574;28;20204;-85
2022/01/09 04:12:34;;;;;;;0.30;0.10;;;-1.30;99.90;;;;;;5052486;28;20202;-85
2022/01/09 04:15:04;;;;;;;0.30;0.20;;;-1.30;99.90;;;;;;5052324;28;20202;-84
2022/01/09 04:17:42;;;;;;;0.30;0.20;;;-1.20;99.90;;;;;;5051728;28;20293;-86
2022/01/09 04:20:12;;;;;;;0.30;0.10;;;-1.20;99.90;;;;;;5067019;28;20696;-85
2022/01/09 04:22:39;;;;;;;0.30;0.10;;;-1.10;99.90;;;;;;5071314;28;20729;-88
2022/01/09 04:25:07;;;;;;;0.30;0.10;;;-1.20;99.90;;;;;;5071394;28;20204;-87
2022/01/09 04:27:34;;;;;;;0.30;0.10;;;-1.20;99.90;;;;;;5055867;28;20544;-87
2022/01/09 04:30:01;;;;;;;0.30;0.10;;;-1.10;99.90;;;;;;5062991;28;20550;-86
2022/01/09 04:32:28;;;;;;;0.30;0.10;;;-1.10;99.90;;;;;;5051065;28;20206;-87
2022/01/09 04:34:55;;;;;;;0.30;0.20;;;-1.00;99.90;;;;;;5051575;28;20199;-85
2022/01/09 04:37:24;;;;;;;0.30;0.10;;;-1.10;99.90;;;;;;5051089;28;20231;-86
2022/01/09 04:39:52;;;;;;;0.40;0.30;;;-0.90;99.90;;;;;;5070192;28;20191;-88
2022/01/09 04:42:22;;;;;;;0.30;0.10;;;-1.00;99.90;;;;;;5052702;28;20199;-86
2022/01/09 04:44:49;;;;;;;0.30;0.20;;;-1.20;99.90;;;;;;5051694;28;20194;-84
2022/01/09 04:47:17;;;;;;;0.30;0.10;;;-1.20;99.90;;;;;;5060446;28;20256;-83
2022/01/09 04:49:46;;;;;;;0.30;0.10;;;-1.20;99.90;;;;;;5063714;28;20198;-84
2022/01/09 04:52:17;;;;;;;0.30;0.10;;;-1.00;99.90;;;;;;5055504;28;20248;-85
2022/01/09 04:54:46;;;;;;;0.30;0.10;;;-1.00;99.90;;;;;;5060062;28;20199;-84
2022/01/09 04:57:13;;;;;;;0.30;0.10;;;-1.00;99.90;;;;;;5068410;28;20205;-86
2022/01/09 04:59:40;;;;;;;0.30;0.10;;;-1.00;99.90;;;;;;5066132;28;20677;-85
2022/01/09 05:02:07;;;;;;;0.30;0.10;;;-1.10;99.90;;;;;;5051725;28;20288;-85
2022/01/09 05:04:34;;;;;;;0.30;0.10;;;-0.90;99.90;;;;;;5052966;28;20319;-86
2022/01/09 05:07:01;;;;;;;0.30;0.10;;;-0.90;99.90;;;;;;5062531;28;20184;-84
2022/01/09 05:09:28;;;;;;;0.30;0.10;;;-0.90;99.90;;;;;;5084695;28;20179;-85
2022/01/09 05:11:58;;;;;;;0.30;0.10;;;-1.10;99.90;;;;;;5079352;28;20199;-83
2022/01/09 05:14:25;;;;;;;0.30;0.10;;;-1.00;99.90;;;;;;5074906;28;20198;-86
2022/01/09 05:16:52;;;;;;;0.30;0.10;;;-1.00;99.90;;;;;;5071902;28;20193;-84
2022/01/09 05:19:21;;;;;;;0.30;0.10;;;-1.10;99.90;;;;;;5068458;28;20190;-84
2022/01/09 05:21:49;;;;;;;0.30;0.10;;;-1.10;99.90;;;;;;5064063;28;20280;-85
2022/01/09 05:24:17;;;;;;;0.57;0.45;;;-1.00;99.90;;;;;;5053202;28;20598;-84
2022/01/09 05:26:44;;;;;;;0.30;0.10;;;-1.10;99.90;;;;;;5068665;28;20282;-84
2022/01/09 05:29:12;;;;;;;0.30;0.15;;;-1.10;99.90;;;;;;5067970;28;20545;-85
2022/01/09 05:31:40;;;;;;;0.30;0.10;;;-1.10;99.90;;;;;;5068325;28;20213;-84
2022/01/09 05:34:07;;;;;;;0.30;0.10;;;-1.10;99.90;;;;;;5056683;28;20256;-84
2022/01/09 05:36:34;;;;;;;0.30;0.10;;;-1.10;99.90;;;;;;5055571;28;20547;-84
2022/01/09 05:39:01;;;;;;;0.30;0.10;;;-1.10;99.90;;;;;;5067252;28;20261;-85
2022/01/09 05:41:28;;;;;;;0.30;0.20;;;-1.10;99.90;;;;;;5061832;28;20259;-84
2022/01/09 05:43:56;;;;;;;0.30;0.10;;;-1.10;99.90;;;;;;5068498;28;20653;-84
2022/01/09 05:46:24;;;;;;;0.30;0.10;;;-1.10;99.90;;;;;;5061238;28;20195;-83
2022/01/09 05:48:51;;;;;;;0.30;0.10;;;-1.00;99.90;;;;;;5050233;28;20199;-84
2022/01/09 05:51:18;;;;;;;0.30;0.10;;;-1.00;99.90;;;;;;5060747;28;20217;-86
2022/01/09 05:53:45;;;;;;;0.30;0.10;;;-1.00;99.90;;;;;;5059545;28;20645;-84
2022/01/09 05:56:12;;;;;;;0.30;0.10;;;-0.90;99.90;;;;;;5060381;28;20190;-86
2022/01/09 05:58:39;;;;;;;0.30;0.10;;;-0.90;99.90;;;;;;5069762;28;20196;-86
2022/01/09 06:01:07;;;;;;;0.30;0.10;;;-1.00;99.90;;;;;;5064697;28;20280;-85
2022/01/09 06:03:36;;;;;;;0.30;0.10;;;-1.00;99.90;;;;;;5067749;28;20193;-84
2022/01/09 06:06:03;;;;;;;0.40;0.40;;;-1.00;99.90;;;;;;5051058;28;20208;-85
2022/01/09 06:08:30;;;;;;;0.30;0.10;;;-1.00;99.90;;;;;;5069482;28;20287;-85
2022/01/09 06:10:57;;;;;;;0.30;0.10;;;-1.00;99.90;;;;;;5064910;28;20218;-85
2022/01/09 06:13:24;;;;;;;0.30;0.20;;;-0.90;99.90;;;;;;5074035;28;20198;-85
2022/01/09 06:15:51;;;;;;;0.30;0.10;;;-0.80;99.90;;;;;;5089760;28;20555;-85
2022/01/09 06:18:19;;;;;;;1.95;0.55;;;-0.80;99.90;;;;;;5070931;28;20205;-84
2022/01/09 06:20:48;;;;;;;0.30;0.10;;;-0.90;99.90;;;;;;5074350;28;20249;-85
2022/01/09 06:23:19;;;;;;;1.48;1.38;;;-0.80;99.90;;;;;;5088351;28;20224;-86
2022/01/09 06:25:47;;;;;;;0.30;0.20;;;-0.80;99.90;;;;;;5082646;28;20195;-86
2022/01/09 06:28:14;;;;;;;0.30;0.10;;;-0.80;99.90;;;;;;5050078;28;20264;-84
2022/01/09 06:30:41;;;;;;;0.30;0.10;;;-0.70;99.90;;;;;;5051321;28;20661;-87
2022/01/09 06:33:08;;;;;;;0.30;0.10;;;-0.90;99.90;;;;;;5049589;28;20224;-84
2022/01/09 06:35:35;;;;;;;0.30;0.17;;;-1.00;99.90;;;;;;5048916;28;20312;-84
2022/01/09 06:38:04;;;;;;;0.30;0.10;;;-0.90;99.90;;;;;;5062744;28;20271;-85
2022/01/09 06:40:31;;;;;;;0.30;0.10;;;-1.00;99.90;;;;;;5066343;28;20243;-88
2022/01/09 06:42:58;;;;;;;0.30;0.10;;;-1.00;99.90;;;;;;5080704;28;20203;-85
2022/01/09 06:45:26;;;;;;;0.30;0.10;;;-1.10;99.90;;;;;;5072085;28;20252;-83
2022/01/09 06:47:54;;;;;;;0.30;0.10;;;-1.30;99.90;;;;;;5080469;28;20197;-84
2022/01/09 06:50:21;;;;;;;0.30;0.10;;;-1.30;99.90;;;;;;5058262;28;20218;-85
2022/01/09 06:52:49;;;;;;;0.30;0.10;;;-1.20;99.90;;;;;;5060013;28;20224;-83
2022/01/09 06:55:17;;;;;;;0.30;0.10;;;-1.20;99.90;;;;;;5063369;28;20738;-86
2022/01/09 06:57:44;;;;;;;0.30;0.10;;;-1.20;99.90;;;;;;5048573;28;20731;-85
2022/01/09 07:00:14;;;;;;;0.30;0.10;;;-1.00;99.90;;;;;;5050940;28;20203;-84
2022/01/09 07:02:41;;;;;;;1.40;0.85;;;-1.10;99.90;;;;;;5061990;28;20220;-85
2022/01/09 07:05:09;;;;;;;0.30;0.10;;;-1.10;99.90;;;;;;5058988;28;20213;-84
2022/01/09 07:07:36;;;;;;;0.30;0.10;;;-1.20;99.90;;;;;;5057051;28;20260;-85
2022/01/09 07:10:04;;;;;;;0.30;0.10;;;-1.30;99.90;;;;;;5051767;28;20687;-83
2022/01/09 07:12:32;;;;;;;0.30;0.10;;;-1.30;99.90;;;;;;5049350;28;20249;-83
2022/01/09 07:14:59;;;;;;;0.40;0.40;;;-1.30;99.90;;;;;;5064102;28;20194;-83
2022/01/09 07:17:26;;;;;;;0.30;0.10;;;-1.30;99.90;;;;;;5067955;28;20194;-83
2022/01/09 07:19:53;;;;;;;0.30;0.10;;;-1.30;99.90;;;;;;5063064;28;20196;-84
2022/01/09 07:22:20;;;;;;;0.30;0.10;;;-1.30;99.90;;;;;;5049502;28;20203;-85
2022/01/09 07:24:47;;;;;;;0.30;0.20;;;-1.20;99.90;;;;;;5049216;28;20199;-85
2022/01/09 07:27:14;;;;;;;0.30;0.10;;;-1.10;99.90;;;;;;5063426;28;20227;-84
2022/01/09 07:29:42;;;;;;;0.30;0.10;;;-1.00;99.90;;;;;;5055331;28;20252;-85
2022/01/09 07:32:09;;;;;;;0.30;0.10;;;-1.00;99.90;;;;;;5051149;28;20274;-84
2022/01/09 07:34:36;;;;;;;0.30;0.20;;;-0.90;99.90;;;;;;5049250;28;20200;-84
2022/01/09 07:37:04;;;;;;;0.30;0.20;;;-0.90;99.90;;;;;;5059265;28;20223;-87
2022/01/09 07:39:31;;;;;;;0.30;0.10;;;-0.90;99.90;;;;;;5050964;28;20252;-84
2022/01/09 07:41:59;;;;;;;0.30;0.10;;;-0.80;99.90;;;;;;5048870;28;20234;-86
2022/01/09 07:44:27;;;;;;;0.30;0.10;;;-0.80;99.90;;;;;;5050773;28;20617;-86
2022/01/09 07:46:55;;;;;;;0.30;0.10;;;-0.80;99.90;;;;;;5060886;28;20700;-83
2022/01/09 07:49:23;;;;;;;0.30;0.10;;;-0.80;99.90;;;;;;5048437;28;20257;-85
2022/01/09 07:51:51;;;;;;;0.30;0.10;;;-0.70;99.90;;;;;;5061761;28;20711;-86
2022/01/09 07:54:18;;;;;;;0.30;0.10;;;-0.50;99.90;;;;;;5053520;28;20194;-84
2022/01/09 07:56:45;;;;;;;0.30;0.10;;;-0.50;99.90;;;;;;5050464;28;20208;-86
2022/01/09 07:59:12;;;;;;;0.30;0.10;;;-0.40;99.90;;;;;;5050058;28;20201;-85
2022/01/09 08:01:39;;;;;;;0.30;0.10;;;-0.40;99.90;;;;;;5058412;28;20317;-84
2022/01/09 08:04:07;;;;;;;0.30;0.10;;;-0.30;99.90;;;;;;5063476;28;20205;-84
2022/01/09 08:06:34;;;;;;;0.30;0.10;;;-0.30;99.90;;;;;;5050852;28;20197;-85
2022/01/09 08:09:01;;;;;;;0.30;0.10;;;-0.10;99.90;;;;;;5053193;28;20196;-85
2022/01/09 08:11:28;;;;;;;0.30;0.10;;;-0.20;99.90;;;;;;5056467;28;20202;-84
2022/01/09 08:13:55;;;;;;;0.30;0.20;;;-0.20;99.90;;;;;;5063935;28;20569;-84
2022/01/09 08:16:22;;;;;;;0.30;0.10;;;-0.20;99.90;;;;;;5091416;28;20444;-85
2022/01/09 08:18:49;;;;;;;0.30;0.10;;;-0.20;99.90;;;;;;5080917;28;20215;-84
2022/01/09 08:21:19;;;;;;;0.30;0.10;;;-0.20;99.90;;;;;;5087906;28;20284;-83
2022/01/09 08:23:47;;;;;;;0.30;0.10;;;-0.20;99.90;;;;;;5072959;28;20236;-84
2022/01/09 08:26:14;;;;;;;0.30;0.10;;;-0.20;99.90;;;;;;5055406;28;20194;-84
2022/01/09 08:28:44;;;;;;;0.30;0.10;;;-0.10;99.90;;;;;;5053227;28;20207;-84
2022/01/09 08:31:11;;;;;;;0.30;0.10;;;-0.20;99.90;;;;;;5052907;28;20294;-83
2022/01/09 08:33:39;;;;;;;0.30;0.10;;;0.00;99.90;;;;;;5062125;28;21064;-82
2022/01/09 08:36:06;;;;;;;0.30;0.20;;;0.10;99.90;;;;;;5061422;28;20273;-84
2022/01/09 08:38:34;;;;;;;0.30;0.10;;;0.20;99.90;;;;;;5061762;28;20246;-87
2022/01/09 08:41:02;;;;;;;0.30;0.10;;;0.30;99.90;;;;;;5051293;28;20650;-84
2022/01/09 08:43:31;;;;;;;0.30;0.10;;;0.30;99.90;;;;;;5071970;28;20199;-84
2022/01/09 08:45:58;;;;;;;0.30;0.10;;;0.30;99.90;;;;;;5061306;28;20197;-84
2022/01/09 08:48:25;;;;;;;0.30;0.10;;;0.20;99.90;;;;;;5068359;28;20660;-85
2022/01/09 08:50:52;;;;;;;0.30;0.10;;;0.30;99.90;;;;;;5070560;28;20193;-82
2022/01/09 08:53:19;;;;;;;0.32;0.20;;;0.40;99.90;;;;;;5071677;28;20223;-86
2022/01/09 08:55:48;;;;;;;0.30;0.10;;;0.50;99.90;;;;;;5067259;28;20205;-84
2022/01/09 08:58:15;;;;;;;0.30;0.15;;;0.60;99.90;;;;;;5052239;28;20233;-83
2022/01/09 09:00:42;;;;;;;0.30;0.10;;;0.60;99.90;;;;;;5062973;28;20593;-84
2022/01/09 09:03:09;;;;;;;0.82;0.82;;;0.60;99.90;;;;;;5071296;28;20211;-84
2022/01/09 09:05:36;;;;;;;0.30;0.10;;;0.70;99.90;;;;;;5067788;28;20230;-84
2022/01/09 09:08:03;;;;;;;0.30;0.10;;;0.70;99.90;;;;;;5059178;28;20286;-85
2022/01/09 09:10:30;;;;;;;0.30;0.20;;;0.60;99.90;;;;;;5066889;28;20440;-84
2022/01/09 09:12:59;;;;;;;0.30;0.10;;;0.60;99.90;;;;;;5066474;28;20247;-84
2022/01/09 09:15:26;;;;;;;0.30;0.10;;;0.60;99.90;;;;;;5064899;28;21354;-83
2022/01/09 09:17:53;;;;;;;0.30;0.10;;;0.80;99.90;;;;;;5064302;28;20201;-85
2022/01/09 09:20:20;;;;;;;0.30;0.10;;;0.90;99.90;;;;;;5061106;28;20328;-84
2022/01/09 09:22:47;;;;;;;0.97;0.97;;;0.80;99.90;;;;;;5071189;28;20243;-84
2022/01/09 09:25:14;;;;;;;0.30;0.10;;;0.80;99.90;;;;;;5066945;28;20456;-83
2022/01/09 09:27:41;;;;;;;0.30;0.10;;;0.70;99.90;;;;;;5063750;28;20258;-84
2022/01/09 09:30:11;;;;;;;0.30;0.10;;;0.70;99.90;;;;;;5050946;28;20666;-85
2022/01/09 09:32:39;;;;;;;0.30;0.20;;;0.80;99.90;;;;;;5050626;28;20223;-84
2022/01/09 09:35:06;;;;;;;0.30;0.10;;;0.90;99.90;;;;;;5058972;28;20200;-83
2022/01/09 09:37:33;;;;;;;0.30;0.10;;;1.10;99.90;;;;;;5070906;28;20257;-84
2022/01/09 09:40:01;;;;;;;0.30;0.10;;;1.20;99.90;;;;;;5070957;28;20200;-84
2022/01/09 09:42:28;;;;;;;0.30;0.10;;;1.10;99.90;;;;;;5074584;28;20234;-85
2022/01/09 09:45:00;;;;;;;0.30;0.10;;;1.10;99.90;;;;;;5057141;28;20477;-83
2022/01/09 09:47:29;;;;;;;0.30;0.10;;;1.10;99.90;;;;;;5081203;28;20185;-84
2022/01/09 09:49:56;;;;;;;0.30;0.10;;;1.10;99.90;;;;;;5081649;28;20189;-86
2022/01/09 09:52:24;;;;;;;0.30;0.10;;;1.20;99.90;;;;;;5071114;28;20252;-82
2022/01/09 09:54:52;;;;;;;0.30;0.10;;;1.20;99.90;;;;;;5064748;28;20209;-84
2022/01/09 09:57:20;;;;;;;0.30;0.20;;;1.20;99.90;;;;;;5065056;28;20230;-83
2022/01/09 09:59:47;;;;;;;0.40;0.20;;;1.20;99.90;;;;;;5067844;28;20462;-83
2022/01/09 10:02:17;;;;;;;0.70;0.43;;;1.30;99.90;;;;;;5067221;28;21063;-82
2022/01/09 10:05:00;;;;;;;0.30;0.13;;;1.50;99.90;;;;;;5059201;28;20232;-83
2022/01/09 10:07:29;;;;;;;0.30;0.20;;;1.60;99.90;;;;;;5056243;28;20497;-83
2022/01/09 10:09:58;;;;;;;0.30;0.10;;;1.60;99.90;;;;;;5068529;28;20529;-84
2022/01/09 10:12:27;;;;;;;0.30;0.10;;;1.80;99.90;;;;;;5061745;28;21183;-84
2022/01/09 10:14:56;;;;;;;0.30;0.10;;;1.80;99.90;;;;;;5055873;28;20479;-83
2022/01/09 10:17:24;;;;;;;0.30;0.10;;;1.80;99.90;;;;;;5078213;28;20465;-84
2022/01/09 10:19:54;;;;;;;0.30;0.10;;;1.80;99.90;;;;;;5072849;28;20516;-83
2022/01/09 10:22:34;;;;;;;1.83;1.73;;;1.80;99.90;;;;;;5078043;28;20514;-83
2022/01/09 10:25:30;;;;;;;0.30;0.10;;;1.90;99.90;;;;;;5058671;28;20530;-85
2022/01/09 10:28:08;;;;;;;0.30;0.20;;;2.20;99.90;;;;;;5053603;28;20464;-87
2022/01/09 10:30:38;;;;;;;0.30;0.10;;;2.30;99.90;;;;;;5065188;28;20460;-87
2022/01/09 10:33:07;;;;;;;0.30;0.10;;;2.40;99.90;;;;;;5052727;28;21340;-86
2022/01/09 10:35:35;;;;;;;0.30;0.10;;;2.40;99.90;;;;;;5058269;28;20566;-84
2022/01/09 10:38:16;;;;;;;0.30;0.20;;;2.40;99.90;;;;;;5068104;28;20502;-85
2022/01/09 10:40:46;;;;;;;0.30;0.10;;;2.40;99.90;;;;;;5050405;28;20460;-85
2022/01/09 10:43:16;;;;;;;0.30;0.10;;;2.40;99.90;;;;;;5050316;28;20443;-85
2022/01/09 10:45:46;;;;;;;0.30;0.10;;;2.50;99.90;;;;;;5053694;28;20467;-89
2022/01/09 10:48:17;;;;;;;0.30;0.10;;;2.50;99.90;;;;;;5077844;28;20463;-86
2022/01/09 10:50:45;;;;;;;0.30;0.10;;;2.50;99.90;;;;;;5052025;28;20476;-86
2022/01/09 10:53:24;;;;;;;0.30;0.10;;;2.50;99.90;;;;;;5054639;28;21007;-85
2022/01/09 10:56:04;;;;;;;0.30;0.10;;;2.50;99.90;;;;;;5049581;28;20533;-88
2022/01/09 10:58:34;;;;;;;0.30;0.10;;;2.60;99.90;;;;;;5049789;28;20476;-85
2022/01/09 11:01:15;;;;;;;0.30;0.10;;;2.60;99.90;;;;;;5053196;28;20566;-87
2022/01/09 11:03:44;;;;;;;0.30;0.10;;;2.60;99.90;;;;;;5069623;28;20508;-86
2022/01/09 11:06:11;;;;;;;0.30;0.10;;;2.70;99.90;;;;;;5048424;28;20502;-85
2022/01/09 11:08:40;;;;;;;0.30;0.10;;;2.60;99.90;;;;;;5056056;28;20506;-85
2022/01/09 11:11:18;;;;;;;0.30;0.10;;;2.70;99.90;;;;;;5059102;28;20516;-84
2022/01/09 11:13:47;;;;;;;0.30;0.10;;;2.70;99.90;;;;;;5049657;28;20570;-86
2022/01/09 11:19:01;;;;;;;0.30;0.10;;;2.60;99.90;;;;;;5062826;28;20538;-86
2022/01/09 11:21:28;;;;;;;0.30;0.10;;;2.60;99.90;;;;;;5056296;28;20459;-84
2022/01/09 11:24:12;;;;;;;0.30;0.10;;;2.60;99.90;;;;;;5076327;28;20455;-84
2022/01/09 11:26:48;;;;;;;0.30;0.10;;;2.60;99.90;;;;;;5080664;28;20451;-85
2022/01/09 11:29:20;;;;;;;0.30;0.10;;;2.60;99.90;;;;;;5084899;28;20502;-86
2022/01/09 11:31:56;;;;;;;0.30;0.10;;;2.70;99.90;;;;;;5068421;28;20553;-86
2022/01/09 11:34:32;;;;;;;0.30;0.10;;;2.60;99.90;;;;;;5064113;28;21072;-85
2022/01/09 11:37:14;;;;;;;0.30;0.10;;;2.60;99.90;;;;;;5061749;28;20517;-85
2022/01/09 11:39:44;;;;;;;0.30;0.10;;;2.60;99.90;;;;;;5057255;28;20573;-85
2022/01/09 11:42:13;;;;;;;0.30;0.10;;;2.60;99.90;;;;;;5059017;28;20467;-85
2022/01/09 11:44:47;;;;;;;0.30;0.10;;;2.60;99.90;;;;;;5068790;28;20553;-84
2022/01/09 11:47:15;;;;;;;0.30;0.10;;;2.60;99.90;;;;;;5052459;28;20533;-85
2022/01/09 11:50:07;;;;;;;0.50;0.33;;;2.60;99.90;;;;;;5061689;28;20444;-87
2022/01/09 11:52:54;;;;;;;0.30;0.10;;;2.60;99.90;;;;;;5069162;28;20444;-86
2022/01/09 11:55:36;;;;;;;0.30;0.10;;;2.60;99.90;;;;;;5059586;28;20448;-85
2022/01/09 11:58:06;;;;;;;0.30;0.10;;;2.70;99.90;;;;;;5052740;28;20491;-86
2022/01/09 12:00:35;;;;;;;0.30;0.10;;;2.70;99.90;;;;;;5067494;28;20460;-85
2022/01/09 12:03:35;;;;;;;0.30;0.10;;;2.70;99.90;;;;;;5051547;28;20489;-86
2022/01/09 12:06:04;;;;;;;0.30;0.10;;;2.70;99.90;;;;;;5051568;28;20862;-86
2022/01/09 12:09:05;;;;;;;0.30;0.10;;;2.80;99.90;;;;;;5052648;28;20523;-86
2022/01/09 12:12:08;;;;;;;0.30;0.10;;;2.80;99.90;;;;;;5063160;28;20455;-85
2022/01/09 12:14:58;;;;;;;0.30;0.13;;;2.90;99.90;;;;;;5066168;28;20532;-85
2022/01/09 12:17:42;;;;;;;0.30;0.10;;;2.90;99.90;;;;;;5063640;28;20490;-85
2022/01/09 12:20:23;;;;;;;0.30;0.10;;;2.90;99.90;;;;;;5072051;28;20853;-86
2022/01/09 12:23:07;;;;;;;0.30;0.10;;;3.00;99.90;;;;;;5063839;28;20488;-85
2022/01/09 12:25:43;;;;;;;0.30;0.10;;;3.00;99.90;;;;;;5059076;28;20456;-86
2022/01/09 12:28:14;;;;;;;0.30;0.10;;;3.00;99.90;;;;;;5064336;28;20870;-84
2022/01/09 12:30:47;;;;;;;0.30;0.10;;;3.00;99.90;;;;;;5060940;28;20948;-84
2022/01/09 12:33:18;;;;;;;0.30;0.10;;;3.10;99.90;;;;;;5061704;28;20571;-85
2022/01/09 12:35:47;;;;;;;0.30;0.10;;;3.10;99.90;;;;;;5060270;28;20524;-85
2022/01/09 12:38:20;;;;;;;0.30;0.10;;;3.10;99.90;;;;;;5054431;28;20925;-85
2022/01/09 12:40:49;;;;;;;0.30;0.10;;;3.20;99.90;;;;;;5060165;28;20499;-86
2022/01/09 12:43:23;;;;;;;0.30;0.10;;;3.20;99.90;;;;;;5058880;28;21178;-84
2022/01/09 12:45:52;;;;;;;0.30;0.10;;;3.30;99.90;;;;;;5056865;28;20972;-84
2022/01/09 12:48:20;;;;;;;0.40;0.40;;;3.40;99.90;;;;;;5059897;28;20443;-84
2022/01/09 12:50:49;;;;;;;0.30;0.10;;;3.50;99.90;;;;;;5058330;28;20547;-84
2022/01/09 12:53:18;;;;;;;0.30;0.10;;;3.60;99.90;;;;;;5061397;28;20512;-84
2022/01/09 12:55:55;;;;;;;0.30;0.10;;;3.70;99.90;;;;;;5074950;28;20446;-87
2022/01/09 12:58:25;;;;;;;0.30;0.10;;;3.60;99.90;;;;;;5088224;28;20456;-84
2022/01/09 13:00:53;;;;;;;0.30;0.10;;;3.50;99.90;;;;;;5081469;28;20458;-84
2022/01/09 13:03:21;;;;;;;0.30;0.10;;;3.50;99.90;;;;;;5080962;28;20528;-84